NC36 weather

Benton's Airfield
Pikeville, North Carolina, United States

Public forecast

Using degrees Fahrenheit for public forecast. Weather courtesy of forecast.io.

Closest aviation weather report (METAR) to Benton's Airfield

Closest report is Goldsboro-Wayne Municipal Airport, 4.1 nm (7.6 km) SE. Retrieved 2020/07/08 06:35 UTC (9 minutes ago):

KGWW 080635Z AUTO 00000KT 7SM CLR 23/23 A2998 RMK AO2 T02260226

Closest aviation forecast (TAF) to Benton's Airfield

Closest forecast is Seymour Johnson Air Force Base, 10.4 nm (19.2 km) SSE. Retrieved 2020-07-08 04:10 UTC (3 hours ago):

TAF KGSB 080400Z 0804/0910 08006KT 9999 SCT005 BKN030 OVC180 QNH2995INS BECMG 0805/0806 07006KT 9999 BKN015 OVC180 QNH2990INS BECMG 0814/0815 07006KT 8000 -RA BKN025 OVC100 QNH2979INS TEMPO 0818/0822 -TSRA BKN025CB BECMG 0823/0824 08006KT 8000 -RA BKN015 QNH2978INS TX28/0820Z TN22/0809Z